Time;durP1;ratioP1;P1;durP2;ratioP2;P2;SDS_P1;SDS_P2;PMS_P1;PMS_P2;Temp;Humidity;BMP_temperature;BMP_pressure;BME280_temperature;BME280_humidity;BME280_pressure;Samples;Min_cycle;Max_cycle;Signal;HPM_P1;HPM_P2
2024/02/26 00:00:19;;;;;;;2.70;1.20;;;;;;;;;;701069;28;1308;-66
2024/02/26 00:00:39;;;;;;;2.95;1.40;;;;;;;;;;702352;28;1309;-66
2024/02/26 00:00:59;;;;;;;3.92;1.40;;;;;;;;;;697438;28;1895;-67
2024/02/26 00:01:19;;;;;;;3.13;1.30;;;;;;;;;;697169;28;4278;-67
2024/02/26 00:01:40;;;;;;;4.10;1.27;;;;;;;;;;695853;28;1277;-67
2024/02/26 00:02:00;;;;;;;3.43;1.30;;;;;;;;;;696737;28;1075;-67
2024/02/26 00:02:21;;;;;;;3.00;1.30;;;;;;;;;;698646;28;1230;-67
2024/02/26 00:02:41;;;;;;;3.67;1.38;;;;;;;;;;697167;28;1831;-67
2024/02/26 00:03:02;;;;;;;3.65;1.42;;;;;;;;;;700379;28;1273;-67
2024/02/26 00:03:22;;;;;;;3.37;1.20;;;;;;;;;;701291;28;1282;-67
2024/02/26 00:03:44;;;;;;;3.83;1.40;;;;;;;;;;702861;27;1769;-67
2024/02/26 00:04:05;;;;;;;3.15;1.30;;;;;;;;;;702923;27;4437;-67
2024/02/26 00:04:25;;;;;;;2.80;1.30;;;;;;;;;;703317;28;1384;-67
2024/02/26 00:04:45;;;;;;;3.43;1.20;;;;;;;;;;702639;28;1790;-67
2024/02/26 00:05:06;;;;;;;3.85;1.40;;;;;;;;;;701140;28;1205;-66
2024/02/26 00:05:26;;;;;;;3.27;1.37;;;;;;;;;;702480;28;1336;-67
2024/02/26 00:05:47;;;;;;;3.17;1.50;;;;;;;;;;699955;28;1463;-66
2024/02/26 00:06:07;;;;;;;2.60;1.30;;;;;;;;;;702782;28;1279;-67
2024/02/26 00:06:27;;;;;;;2.60;1.30;;;;;;;;;;702052;28;1300;-67
2024/02/26 00:06:50;;;;;;;3.13;1.30;;;;;;;;;;701227;27;1463;-66
2024/02/26 00:07:10;;;;;;;3.20;1.33;;;;;;;;;;704595;27;4631;-66
2024/02/26 00:07:30;;;;;;;2.57;1.20;;;;;;;;;;703911;27;1304;-67
2024/02/26 00:07:51;;;;;;;2.80;1.20;;;;;;;;;;702917;28;1921;-67
2024/02/26 00:08:11;;;;;;;3.40;1.30;;;;;;;;;;705444;27;1320;-67
2024/02/26 00:08:31;;;;;;;3.23;1.30;;;;;;;;;;703216;27;3618;-66
2024/02/26 00:08:52;;;;;;;3.00;1.27;;;;;;;;;;702022;27;3304;-67
2024/02/26 00:09:12;;;;;;;2.85;1.40;;;;;;;;;;700168;28;1395;-66
2024/02/26 00:09:36;;;;;;;2.47;1.27;;;;;;;;;;699685;28;1345;-66
2024/02/26 00:09:56;;;;;;;3.00;1.45;;;;;;;;;;697710;28;1441;-67
2024/02/26 00:10:16;;;;;;;3.73;1.60;;;;;;;;;;699588;28;4405;-66
2024/02/26 00:10:36;;;;;;;3.53;1.57;;;;;;;;;;699440;28;1250;-67
2024/02/26 00:10:57;;;;;;;3.33;1.30;;;;;;;;;;697400;28;1667;-67
2024/02/26 00:11:17;;;;;;;3.17;1.30;;;;;;;;;;703097;28;1226;-66
2024/02/26 00:11:37;;;;;;;3.53;1.30;;;;;;;;;;700308;28;1292;-66
2024/02/26 00:11:59;;;;;;;4.22;1.40;;;;;;;;;;698992;28;2205;-66
2024/02/26 00:12:19;;;;;;;3.38;1.30;;;;;;;;;;702365;28;1229;-66
2024/02/26 00:12:39;;;;;;;2.70;1.20;;;;;;;;;;700307;28;1221;-66
2024/02/26 00:13:00;;;;;;;2.77;1.30;;;;;;;;;;700491;28;1206;-66
2024/02/26 00:13:22;;;;;;;3.50;1.30;;;;;;;;;;701049;28;4402;-67
2024/02/26 00:13:42;;;;;;;3.65;1.40;;;;;;;;;;698954;28;2344;-67
2024/02/26 00:14:02;;;;;;;3.58;1.50;;;;;;;;;;702018;28;1217;-66
2024/02/26 00:14:23;;;;;;;4.10;1.40;;;;;;;;;;702874;28;1268;-66
2024/02/26 00:14:45;;;;;;;3.33;1.30;;;;;;;;;;701350;28;1722;-67
2024/02/26 00:15:08;;;;;;;2.67;1.40;;;;;;;;;;702239;28;1218;-67
2024/02/26 00:15:28;;;;;;;3.20;1.52;;;;;;;;;;704930;27;1202;-67
2024/02/26 00:15:49;;;;;;;3.95;1.40;;;;;;;;;;704166;27;2442;-66
2024/02/26 00:16:09;;;;;;;3.43;1.40;;;;;;;;;;704531;27;5307;-66
2024/02/26 00:16:29;;;;;;;3.00;1.30;;;;;;;;;;703950;27;1265;-66
2024/02/26 00:16:50;;;;;;;2.95;1.27;;;;;;;;;;703386;27;2001;-67
2024/02/26 00:17:10;;;;;;;2.87;1.30;;;;;;;;;;702030;28;1539;-66
2024/02/26 00:17:30;;;;;;;3.45;1.23;;;;;;;;;;702418;28;1149;-67
2024/02/26 00:17:51;;;;;;;3.53;1.60;;;;;;;;;;698679;28;1312;-68
2024/02/26 00:18:11;;;;;;;3.20;1.40;;;;;;;;;;701876;28;1289;-67
2024/02/26 00:18:31;;;;;;;3.10;1.30;;;;;;;;;;702712;28;1307;-67
2024/02/26 00:18:52;;;;;;;3.43;1.30;;;;;;;;;;697469;28;1934;-68
2024/02/26 00:19:12;;;;;;;3.53;1.37;;;;;;;;;;700391;28;4507;-68
2024/02/26 00:19:32;;;;;;;3.70;1.55;;;;;;;;;;701509;28;1265;-67
2024/02/26 00:19:53;;;;;;;3.50;1.43;;;;;;;;;;700131;28;2008;-68
2024/02/26 00:20:13;;;;;;;3.97;1.30;;;;;;;;;;702796;28;1344;-68
2024/02/26 00:20:34;;;;;;;3.33;1.30;;;;;;;;;;702531;28;1091;-67
2024/02/26 00:20:54;;;;;;;3.47;1.33;;;;;;;;;;703476;27;1584;-68
2024/02/26 00:21:14;;;;;;;3.47;1.40;;;;;;;;;;704170;27;1340;-67
2024/02/26 00:21:34;;;;;;;3.13;1.30;;;;;;;;;;704619;27;841;-67
2024/02/26 00:21:55;;;;;;;2.50;1.20;;;;;;;;;;700996;28;1724;-68
2024/02/26 00:22:15;;;;;;;2.90;1.20;;;;;;;;;;703548;28;4484;-68
2024/02/26 00:22:36;;;;;;;3.20;1.20;;;;;;;;;;703925;27;1197;-68
2024/02/26 00:22:56;;;;;;;2.43;1.20;;;;;;;;;;703143;28;1454;-68
2024/02/26 00:23:17;;;;;;;2.63;1.00;;;;;;;;;;700504;28;1233;-68
2024/02/26 00:23:37;;;;;;;3.37;1.10;;;;;;;;;;702427;28;1359;-67
2024/02/26 00:23:57;;;;;;;3.47;1.20;;;;;;;;;;699531;28;1934;-67
2024/02/26 00:24:17;;;;;;;2.90;1.30;;;;;;;;;;703525;28;1237;-67
2024/02/26 00:24:39;;;;;;;2.50;1.20;;;;;;;;;;701617;28;1170;-68
2024/02/26 00:24:59;;;;;;;2.10;1.08;;;;;;;;;;699970;28;1749;-67
2024/02/26 00:25:20;;;;;;;2.67;1.27;;;;;;;;;;699329;28;4221;-68
2024/02/26 00:25:42;;;;;;;3.38;1.55;;;;;;;;;;699967;28;1217;-68
2024/02/26 00:26:03;;;;;;;2.67;1.40;;;;;;;;;;700360;28;1137;-68
2024/02/26 00:26:23;;;;;;;2.53;1.10;;;;;;;;;;700754;28;1181;-68
2024/02/26 00:26:44;;;;;;;2.57;1.10;;;;;;;;;;697288;28;1123;-68
2024/02/26 00:27:04;;;;;;;2.40;1.20;;;;;;;;;;696295;28;1195;-68
2024/02/26 00:27:24;;;;;;;2.20;1.10;;;;;;;;;;698030;28;1205;-67
2024/02/26 00:27:45;;;;;;;2.53;1.10;;;;;;;;;;697277;28;2015;-68
2024/02/26 00:28:05;;;;;;;2.97;1.13;;;;;;;;;;699094;28;4221;-68
2024/02/26 00:28:27;;;;;;;3.87;1.50;;;;;;;;;;699900;28;1269;-67
2024/02/26 00:28:47;;;;;;;4.05;1.50;;;;;;;;;;700500;28;1452;-67
2024/02/26 00:29:07;;;;;;;3.93;1.40;;;;;;;;;;704019;27;1174;-67
2024/02/26 00:29:28;;;;;;;3.33;1.30;;;;;;;;;;703447;28;884;-68
2024/02/26 00:29:48;;;;;;;2.50;1.20;;;;;;;;;;700118;28;1475;-68
2024/02/26 00:30:09;;;;;;;3.67;1.50;;;;;;;;;;701979;28;1289;-68
2024/02/26 00:30:29;;;;;;;4.97;1.53;;;;;;;;;;702331;28;1229;-68
2024/02/26 00:30:49;;;;;;;4.07;1.40;;;;;;;;;;700783;28;2277;-68
2024/02/26 00:31:10;;;;;;;2.75;1.40;;;;;;;;;;700483;28;4531;-68
2024/02/26 00:31:30;;;;;;;4.88;1.83;;;;;;;;;;701375;27;1312;-68
2024/02/26 00:31:51;;;;;;;7.70;2.20;;;;;;;;;;703240;27;2099;-68
2024/02/26 00:32:11;;;;;;;5.45;1.77;;;;;;;;;;704651;27;1250;-68
2024/02/26 00:32:31;;;;;;;4.73;1.50;;;;;;;;;;701579;28;1294;-68
2024/02/26 00:32:52;;;;;;;3.20;1.30;;;;;;;;;;696486;28;2453;-68
2024/02/26 00:33:12;;;;;;;3.13;1.30;;;;;;;;;;696820;28;1289;-68
2024/02/26 00:33:33;;;;;;;3.37;1.23;;;;;;;;;;698825;28;1751;-68
2024/02/26 00:33:53;;;;;;;2.67;1.15;;;;;;;;;;697245;28;2153;-68
2024/02/26 00:34:13;;;;;;;2.33;1.10;;;;;;;;;;698109;28;4409;-67
2024/02/26 00:34:34;;;;;;;3.23;1.17;;;;;;;;;;699662;28;1344;-67
2024/02/26 00:34:54;;;;;;;2.70;1.20;;;;;;;;;;697750;28;1368;-67
2024/02/26 00:35:15;;;;;;;2.03;1.10;;;;;;;;;;696630;28;1385;-68
2024/02/26 00:35:35;;;;;;;2.53;1.10;;;;;;;;;;697406;28;1399;-68
2024/02/26 00:35:56;;;;;;;2.80;1.30;;;;;;;;;;696469;28;2079;-67
2024/02/26 00:36:16;;;;;;;2.33;1.17;;;;;;;;;;700579;28;1264;-67
2024/02/26 00:36:36;;;;;;;2.45;1.13;;;;;;;;;;702003;28;1252;-68
2024/02/26 00:36:57;;;;;;;2.70;1.57;;;;;;;;;;696673;28;1963;-67
2024/02/26 00:37:17;;;;;;;3.57;1.47;;;;;;;;;;700923;28;4214;-67
2024/02/26 00:37:37;;;;;;;2.97;1.42;;;;;;;;;;702162;28;1230;-67
2024/02/26 00:37:58;;;;;;;2.00;1.07;;;;;;;;;;700235;28;1522;-67
2024/02/26 00:38:18;;;;;;;2.05;1.10;;;;;;;;;;702402;28;1300;-67
2024/02/26 00:38:40;;;;;;;2.47;1.00;;;;;;;;;;702226;28;1383;-67
2024/02/26 00:39:00;;;;;;;2.50;1.00;;;;;;;;;;703039;27;1476;-67
2024/02/26 00:39:20;;;;;;;2.20;1.10;;;;;;;;;;703548;27;1261;-68
2024/02/26 00:39:41;;;;;;;2.80;1.10;;;;;;;;;;703897;27;1966;-67
2024/02/26 00:40:01;;;;;;;2.70;1.15;;;;;;;;;;703399;27;1839;-67
2024/02/26 00:40:22;;;;;;;2.07;1.00;;;;;;;;;;704326;27;4322;-68
2024/02/26 00:40:42;;;;;;;2.63;1.13;;;;;;;;;;704572;27;1353;-67
2024/02/26 00:41:03;;;;;;;2.30;1.20;;;;;;;;;;703169;27;1095;-68
2024/02/26 00:41:23;;;;;;;3.33;1.30;;;;;;;;;;704950;27;1245;-68
2024/02/26 00:41:43;;;;;;;2.80;1.20;;;;;;;;;;703911;27;1981;-68
2024/02/26 00:42:04;;;;;;;2.10;1.10;;;;;;;;;;704181;27;1253;-68
2024/02/26 00:42:24;;;;;;;2.43;1.20;;;;;;;;;;705965;27;1364;-68
2024/02/26 00:42:45;;;;;;;2.95;1.25;;;;;;;;;;700264;28;1503;-68
2024/02/26 00:43:07;;;;;;;2.95;1.35;;;;;;;;;;700513;28;4432;-68
2024/02/26 00:43:27;;;;;;;2.30;1.10;;;;;;;;;;702325;28;1309;-67
2024/02/26 00:43:47;;;;;;;2.53;1.15;;;;;;;;;;700490;28;1593;-67
2024/02/26 00:44:08;;;;;;;2.47;1.10;;;;;;;;;;701489;28;1391;-68
2024/02/26 00:44:28;;;;;;;1.80;1.00;;;;;;;;;;702253;28;1268;-68
2024/02/26 00:44:48;;;;;;;2.75;1.10;;;;;;;;;;702865;28;1333;-67
2024/02/26 00:45:08;;;;;;;2.87;1.30;;;;;;;;;;704933;27;1252;-67
2024/02/26 00:45:29;;;;;;;2.80;1.20;;;;;;;;;;704518;27;1230;-68
2024/02/26 00:45:49;;;;;;;3.27;1.40;;;;;;;;;;703166;28;2135;-68
2024/02/26 00:46:10;;;;;;;2.77;1.20;;;;;;;;;;704254;27;4441;-67
2024/02/26 00:46:30;;;;;;;1.88;1.10;;;;;;;;;;704762;27;1285;-68
2024/02/26 00:46:50;;;;;;;2.37;1.00;;;;;;;;;;703324;27;1145;-68
2024/02/26 00:47:10;;;;;;;2.80;1.10;;;;;;;;;;705477;27;1214;-68
2024/02/26 00:47:31;;;;;;;2.03;1.10;;;;;;;;;;703454;28;1170;-68
2024/02/26 00:47:51;;;;;;;2.40;1.30;;;;;;;;;;703295;27;1437;-68
2024/02/26 00:48:13;;;;;;;2.25;1.20;;;;;;;;;;704760;27;1237;-68
2024/02/26 00:48:34;;;;;;;2.95;1.17;;;;;;;;;;701887;28;1218;-68
2024/02/26 00:48:54;;;;;;;2.87;1.03;;;;;;;;;;697812;28;1353;-68
2024/02/26 00:49:15;;;;;;;3.10;1.10;;;;;;;;;;698043;28;4360;-68
2024/02/26 00:49:35;;;;;;;2.83;1.27;;;;;;;;;;699936;28;823;-68
2024/02/26 00:49:55;;;;;;;2.75;1.15;;;;;;;;;;698173;28;2535;-68
2024/02/26 00:50:16;;;;;;;1.67;1.00;;;;;;;;;;699543;28;1420;-69
2024/02/26 00:50:36;;;;;;;2.13;1.00;;;;;;;;;;701686;28;1348;-68
2024/02/26 00:50:57;;;;;;;2.70;1.00;;;;;;;;;;703831;27;1111;-68
2024/02/26 00:51:17;;;;;;;2.33;1.10;;;;;;;;;;702278;28;1250;-68
2024/02/26 00:51:38;;;;;;;1.97;1.10;;;;;;;;;;701582;28;1242;-68
2024/02/26 00:51:58;;;;;;;2.17;1.05;;;;;;;;;;697666;28;1726;-71
2024/02/26 00:52:18;;;;;;;2.07;1.10;;;;;;;;;;697758;28;4487;-68
2024/02/26 00:52:39;;;;;;;1.92;1.05;;;;;;;;;;699368;28;1234;-68
2024/02/26 00:52:59;;;;;;;2.40;1.17;;;;;;;;;;698432;28;1104;-67
2024/02/26 00:53:20;;;;;;;2.30;1.10;;;;;;;;;;701532;28;1229;-68
2024/02/26 00:53:40;;;;;;;1.97;1.00;;;;;;;;;;701458;28;1303;-68
2024/02/26 00:54:00;;;;;;;2.00;0.93;;;;;;;;;;698715;28;1142;-67
2024/02/26 00:54:21;;;;;;;2.28;0.90;;;;;;;;;;702702;28;1236;-68
2024/02/26 00:54:42;;;;;;;1.92;0.98;;;;;;;;;;701314;28;1138;-68
2024/02/26 00:55:03;;;;;;;1.65;0.90;;;;;;;;;;699163;28;4364;-68
2024/02/26 00:55:23;;;;;;;2.90;1.07;;;;;;;;;;702810;28;1217;-67
2024/02/26 00:55:43;;;;;;;1.85;0.95;;;;;;;;;;701768;28;1210;-68
2024/02/26 00:56:04;;;;;;;2.00;0.90;;;;;;;;;;703041;28;1674;-68
2024/02/26 00:56:24;;;;;;;2.43;1.00;;;;;;;;;;702983;27;1175;-68
2024/02/26 00:56:44;;;;;;;1.48;0.88;;;;;;;;;;703032;27;2435;-68
2024/02/26 00:57:05;;;;;;;1.37;0.90;;;;;;;;;;704620;27;1178;-67
2024/02/26 00:57:25;;;;;;;2.00;1.10;;;;;;;;;;705014;27;1169;-68
2024/02/26 00:57:46;;;;;;;2.30;1.00;;;;;;;;;;703258;27;1477;-68
2024/02/26 00:58:06;;;;;;;2.80;1.10;;;;;;;;;;702951;27;4504;-68
2024/02/26 00:58:27;;;;;;;2.60;1.00;;;;;;;;;;702692;28;1304;-69
2024/02/26 00:58:47;;;;;;;2.30;1.00;;;;;;;;;;698015;28;1909;-68
2024/02/26 00:59:07;;;;;;;1.70;0.90;;;;;;;;;;698940;28;1222;-69
2024/02/26 00:59:27;;;;;;;1.70;0.90;;;;;;;;;;696433;28;1247;-68
2024/02/26 00:59:48;;;;;;;1.55;0.90;;;;;;;;;;695073;28;1982;-67
2024/02/26 01:00:08;;;;;;;1.43;0.83;;;;;;;;;;695836;28;1148;-68
2024/02/26 01:00:29;;;;;;;1.25;0.80;;;;;;;;;;697962;28;1587;-67
2024/02/26 01:00:49;;;;;;;2.30;1.00;;;;;;;;;;700694;28;1476;-67
2024/02/26 01:01:09;;;;;;;1.50;0.90;;;;;;;;;;701257;28;4473;-68
2024/02/26 01:01:30;;;;;;;1.70;0.97;;;;;;;;;;706699;27;996;-67
2024/02/26 01:01:50;;;;;;;2.10;1.00;;;;;;;;;;703293;27;2464;-68
2024/02/26 01:02:10;;;;;;;2.10;1.00;;;;;;;;;;704870;27;773;-68
2024/02/26 01:02:30;;;;;;;1.87;1.00;;;;;;;;;;706429;27;824;-68
2024/02/26 01:02:51;;;;;;;2.33;1.07;;;;;;;;;;702046;27;1522;-67
2024/02/26 01:03:11;;;;;;;2.13;1.00;;;;;;;;;;704514;27;892;-68
2024/02/26 01:03:31;;;;;;;3.10;1.00;;;;;;;;;;705665;27;765;-68
2024/02/26 01:03:51;;;;;;;2.47;0.93;;;;;;;;;;699007;28;1967;-68
2024/02/26 01:04:12;;;;;;;2.10;0.97;;;;;;;;;;700859;28;4350;-67
2024/02/26 01:04:33;;;;;;;1.52;0.90;;;;;;;;;;699331;28;1257;-68
2024/02/26 01:04:54;;;;;;;2.55;1.00;;;;;;;;;;695343;28;4036;-67
2024/02/26 01:05:16;;;;;;;2.00;0.90;;;;;;;;;;698354;28;4148;-68
2024/02/26 01:05:37;;;;;;;1.23;0.70;;;;;;;;;;699281;28;1104;-67
2024/02/26 01:05:58;;;;;;;1.95;0.90;;;;;;;;;;700790;28;2011;-68
2024/02/26 01:06:18;;;;;;;2.13;1.00;;;;;;;;;;698513;28;936;-68
2024/02/26 01:06:38;;;;;;;1.58;0.88;;;;;;;;;;697797;28;1251;-68
2024/02/26 01:06:59;;;;;;;1.97;1.00;;;;;;;;;;695875;28;2085;-67
2024/02/26 01:07:19;;;;;;;1.77;0.90;;;;;;;;;;696624;28;4232;-68
2024/02/26 01:07:39;;;;;;;1.37;0.90;;;;;;;;;;695699;28;837;-68
2024/02/26 01:08:00;;;;;;;1.23;0.80;;;;;;;;;;699296;28;893;-68
2024/02/26 01:08:20;;;;;;;1.88;0.90;;;;;;;;;;701527;27;845;-68
2024/02/26 01:08:40;;;;;;;3.27;1.00;;;;;;;;;;702243;28;1239;-68
2024/02/26 01:09:01;;;;;;;1.97;0.80;;;;;;;;;;699151;28;1713;-68
2024/02/26 01:09:21;;;;;;;2.53;0.97;;;;;;;;;;701509;28;801;-68
2024/02/26 01:09:42;;;;;;;2.28;0.90;;;;;;;;;;701676;28;1018;-67
2024/02/26 01:10:02;;;;;;;1.80;1.00;;;;;;;;;;699595;28;4824;-68
2024/02/26 01:10:23;;;;;;;1.93;1.10;;;;;;;;;;702125;28;793;-68
2024/02/26 01:10:43;;;;;;;2.28;1.08;;;;;;;;;;705702;27;812;-67
2024/02/26 01:11:03;;;;;;;2.53;1.00;;;;;;;;;;702475;27;2494;-68
2024/02/26 01:11:23;;;;;;;2.20;0.90;;;;;;;;;;706416;27;773;-68
2024/02/26 01:11:44;;;;;;;2.20;1.00;;;;;;;;;;700539;28;1317;-68
2024/02/26 01:12:04;;;;;;;2.67;1.00;;;;;;;;;;699425;28;1707;-68
2024/02/26 01:12:24;;;;;;;1.83;1.00;;;;;;;;;;702706;28;884;-68
2024/02/26 01:12:45;;;;;;;1.60;0.90;;;;;;;;;;699344;28;769;-68
2024/02/26 01:13:05;;;;;;;1.43;0.80;;;;;;;;;;698897;28;4285;-68
2024/02/26 01:13:25;;;;;;;1.38;0.80;;;;;;;;;;698367;28;880;-68
2024/02/26 01:13:46;;;;;;;1.60;0.80;;;;;;;;;;698347;28;2395;-68
2024/02/26 01:14:06;;;;;;;1.90;0.90;;;;;;;;;;702946;28;876;-68
2024/02/26 01:14:26;;;;;;;1.17;0.90;;;;;;;;;;701599;28;785;-69
2024/02/26 01:14:46;;;;;;;1.47;1.00;;;;;;;;;;702668;27;1875;-69
2024/02/26 01:15:08;;;;;;;1.47;0.80;;;;;;;;;;703988;28;880;-68
2024/02/26 01:15:28;;;;;;;1.48;0.82;;;;;;;;;;701007;28;1240;-68
2024/02/26 01:15:48;;;;;;;1.67;0.90;;;;;;;;;;699578;28;1850;-68
2024/02/26 01:16:09;;;;;;;1.73;0.90;;;;;;;;;;698602;28;4469;-68
2024/02/26 01:16:31;;;;;;;1.98;1.00;;;;;;;;;;698837;28;956;-68
2024/02/26 01:16:52;;;;;;;1.63;0.88;;;;;;;;;;698850;28;1440;-68
2024/02/26 01:17:12;;;;;;;2.30;1.00;;;;;;;;;;699556;28;928;-68
2024/02/26 01:17:32;;;;;;;2.33;0.93;;;;;;;;;;702462;28;904;-68
2024/02/26 01:17:53;;;;;;;1.95;0.90;;;;;;;;;;698420;28;1949;-68
2024/02/26 01:18:13;;;;;;;2.20;0.90;;;;;;;;;;699603;28;1007;-68
2024/02/26 01:18:33;;;;;;;1.77;0.90;;;;;;;;;;698830;28;935;-68
2024/02/26 01:18:53;;;;;;;1.65;0.80;;;;;;;;;;698779;28;1721;-68
2024/02/26 01:19:14;;;;;;;1.53;0.90;;;;;;;;;;702569;28;4240;-68
2024/02/26 01:19:34;;;;;;;2.50;1.10;;;;;;;;;;702624;28;870;-68
2024/02/26 01:19:54;;;;;;;2.00;1.10;;;;;;;;;;704777;27;2003;-69
2024/02/26 01:20:15;;;;;;;1.97;0.90;;;;;;;;;;703471;27;803;-68
2024/02/26 01:20:35;;;;;;;1.70;0.80;;;;;;;;;;704773;27;766;-68
2024/02/26 01:20:55;;;;;;;1.50;0.80;;;;;;;;;;703125;27;1834;-68
2024/02/26 01:21:15;;;;;;;1.97;0.90;;;;;;;;;;703999;27;971;-68
2024/02/26 01:21:36;;;;;;;2.23;1.00;;;;;;;;;;703928;28;1069;-68
2024/02/26 01:21:56;;;;;;;1.58;0.85;;;;;;;;;;702292;27;1717;-68
2024/02/26 01:22:16;;;;;;;2.63;0.93;;;;;;;;;;700308;28;4711;-69
2024/02/26 01:22:36;;;;;;;2.90;1.00;;;;;;;;;;702712;28;848;-69
2024/02/26 01:22:57;;;;;;;3.00;0.95;;;;;;;;;;699252;28;1101;-69
2024/02/26 01:23:17;;;;;;;2.20;0.87;;;;;;;;;;702112;28;931;-69
2024/02/26 01:23:37;;;;;;;1.80;0.90;;;;;;;;;;697185;28;936;-69
2024/02/26 01:23:57;;;;;;;2.23;1.00;;;;;;;;;;695582;28;1687;-70
2024/02/26 01:24:18;;;;;;;1.93;1.00;;;;;;;;;;699356;28;987;-69
2024/02/26 01:24:38;;;;;;;1.97;0.90;;;;;;;;;;700217;28;869;-69
2024/02/26 01:24:58;;;;;;;1.75;0.98;;;;;;;;;;696299;28;2413;-69
2024/02/26 01:25:19;;;;;;;1.60;0.97;;;;;;;;;;696506;28;4393;-69
2024/02/26 01:25:39;;;;;;;1.67;0.90;;;;;;;;;;699393;28;877;-69
2024/02/26 01:25:59;;;;;;;2.40;0.93;;;;;;;;;;700040;28;1930;-69
2024/02/26 01:26:21;;;;;;;3.00;1.00;;;;;;;;;;697732;28;885;-69
2024/02/26 01:26:41;;;;;;;1.85;0.88;;;;;;;;;;699147;28;912;-69
2024/02/26 01:27:01;;;;;;;1.93;0.90;;;;;;;;;;697495;28;1731;-69
2024/02/26 01:27:26;;;;;;;1.90;1.07;;;;;;;;;;699029;28;819;-69
2024/02/26 01:27:46;;;;;;;1.95;1.00;;;;;;;;;;698498;28;999;-69
2024/02/26 01:28:07;;;;;;;1.90;1.17;;;;;;;;;;698195;28;4407;-70
2024/02/26 01:28:27;;;;;;;1.60;1.10;;;;;;;;;;697913;28;1272;-69
2024/02/26 01:28:47;;;;;;;1.93;1.00;;;;;;;;;;697745;28;1856;-68
2024/02/26 01:29:08;;;;;;;2.40;1.00;;;;;;;;;;702083;28;970;-68
2024/02/26 01:29:28;;;;;;;1.40;0.90;;;;;;;;;;701855;28;769;-69
2024/02/26 01:29:48;;;;;;;1.53;0.87;;;;;;;;;;697241;28;1585;-67
2024/02/26 01:30:09;;;;;;;1.58;0.93;;;;;;;;;;701932;28;852;-68
2024/02/26 01:30:29;;;;;;;1.73;0.90;;;;;;;;;;704995;27;785;-68
2024/02/26 01:30:49;;;;;;;2.20;0.90;;;;;;;;;;702804;27;1773;-68
2024/02/26 01:31:10;;;;;;;2.20;1.00;;;;;;;;;;705815;27;4623;-68
2024/02/26 01:31:30;;;;;;;2.70;1.20;;;;;;;;;;704036;27;1112;-68
2024/02/26 01:31:50;;;;;;;2.05;1.10;;;;;;;;;;702648;27;1860;-69
2024/02/26 01:32:11;;;;;;;1.40;0.90;;;;;;;;;;705177;27;828;-68
2024/02/26 01:32:31;;;;;;;1.50;0.80;;;;;;;;;;704412;27;884;-68
2024/02/26 01:32:51;;;;;;;2.00;0.93;;;;;;;;;;702926;27;1684;-68
2024/02/26 01:33:12;;;;;;;2.50;0.90;;;;;;;;;;705032;27;830;-68
2024/02/26 01:33:32;;;;;;;2.57;0.90;;;;;;;;;;705208;27;899;-68
2024/02/26 01:33:52;;;;;;;2.13;1.00;;;;;;;;;;702562;27;2061;-69
2024/02/26 01:34:13;;;;;;;2.13;1.07;;;;;;;;;;704128;27;4235;-68
2024/02/26 01:34:34;;;;;;;1.77;1.00;;;;;;;;;;705543;27;917;-68
2024/02/26 01:34:54;;;;;;;2.60;1.10;;;;;;;;;;703424;27;1852;-69
2024/02/26 01:35:14;;;;;;;2.13;1.10;;;;;;;;;;705655;27;951;-69
2024/02/26 01:35:35;;;;;;;2.42;1.00;;;;;;;;;;704718;27;948;-68
2024/02/26 01:35:56;;;;;;;2.13;1.00;;;;;;;;;;703294;27;1484;-69
2024/02/26 01:36:16;;;;;;;1.90;1.00;;;;;;;;;;705359;27;762;-68
2024/02/26 01:36:36;;;;;;;2.60;1.23;;;;;;;;;;704832;27;959;-69
2024/02/26 01:36:57;;;;;;;2.25;1.17;;;;;;;;;;703806;27;1441;-69
2024/02/26 01:37:17;;;;;;;2.10;1.20;;;;;;;;;;704449;27;4318;-69
2024/02/26 01:37:37;;;;;;;1.65;1.00;;;;;;;;;;702383;28;1544;-68
2024/02/26 01:37:58;;;;;;;2.10;1.00;;;;;;;;;;700278;28;2588;-68
2024/02/26 01:38:18;;;;;;;1.98;1.10;;;;;;;;;;702638;28;1027;-68
2024/02/26 01:38:39;;;;;;;1.77;1.03;;;;;;;;;;699393;28;1337;-69
2024/02/26 01:38:59;;;;;;;2.85;1.20;;;;;;;;;;699147;28;1807;-69
2024/02/26 01:39:19;;;;;;;3.00;1.17;;;;;;;;;;699560;28;885;-68
2024/02/26 01:39:41;;;;;;;1.80;1.20;;;;;;;;;;699053;28;1914;-68
2024/02/26 01:40:03;;;;;;;2.22;1.10;;;;;;;;;;696973;28;4295;-68
2024/02/26 01:40:26;;;;;;;1.83;0.90;;;;;;;;;;701654;28;829;-68
2024/02/26 01:40:47;;;;;;;2.40;0.98;;;;;;;;;;701468;28;1430;-68
2024/02/26 01:41:07;;;;;;;2.10;1.00;;;;;;;;;;700234;28;2362;-68
2024/02/26 01:41:32;;;;;;;2.10;1.00;;;;;;;;;;703043;28;766;-68
2024/02/26 01:41:52;;;;;;;1.80;1.00;;;;;;;;;;700952;28;1874;-68
2024/02/26 01:42:12;;;;;;;2.50;1.00;;;;;;;;;;701963;28;940;-68
2024/02/26 01:42:33;;;;;;;2.38;1.00;;;;;;;;;;699705;28;761;-68
2024/02/26 01:42:53;;;;;;;1.80;0.90;;;;;;;;;;701985;28;1840;-68
2024/02/26 01:43:13;;;;;;;2.00;1.00;;;;;;;;;;701826;28;4471;-68
2024/02/26 01:43:33;;;;;;;1.23;0.93;;;;;;;;;;702751;28;896;-68
2024/02/26 01:43:54;;;;;;;1.93;1.20;;;;;;;;;;700707;28;999;-68
2024/02/26 01:44:14;;;;;;;3.30;1.30;;;;;;;;;;695936;28;1301;-69
2024/02/26 01:44:34;;;;;;;2.20;1.00;;;;;;;;;;696691;28;740;-68
2024/02/26 01:44:55;;;;;;;1.70;1.00;;;;;;;;;;697239;28;1807;-68
2024/02/26 01:45:21;;;;;;;1.58;0.88;;;;;;;;;;698793;28;849;-68
2024/02/26 01:45:41;;;;;;;1.80;1.10;;;;;;;;;;697811;28;979;-68
2024/02/26 01:46:03;;;;;;;2.40;1.07;;;;;;;;;;695726;28;4278;-69
2024/02/26 01:46:23;;;;;;;2.17;0.90;;;;;;;;;;703565;28;884;-69
2024/02/26 01:46:43;;;;;;;1.93;0.90;;;;;;;;;;702945;28;947;-68
2024/02/26 01:47:04;;;;;;;3.30;1.03;;;;;;;;;;698069;28;1887;-68
2024/02/26 01:47:25;;;;;;;2.40;1.00;;;;;;;;;;699515;28;798;-68
2024/02/26 01:47:45;;;;;;;2.33;1.00;;;;;;;;;;699152;28;896;-68
2024/02/26 01:48:06;;;;;;;2.43;1.03;;;;;;;;;;700765;28;938;-68
2024/02/26 01:48:27;;;;;;;3.17;1.10;;;;;;;;;;701801;28;1125;-68
2024/02/26 01:48:47;;;;;;;2.90;1.20;;;;;;;;;;701956;28;907;-69
2024/02/26 01:49:11;;;;;;;1.77;1.00;;;;;;;;;;703259;27;4686;-68
2024/02/26 01:49:31;;;;;;;1.38;0.90;;;;;;;;;;704485;27;883;-69
2024/02/26 01:49:52;;;;;;;1.70;1.00;;;;;;;;;;701914;28;1546;-69
2024/02/26 01:50:12;;;;;;;2.58;1.15;;;;;;;;;;702775;28;912;-68
2024/02/26 01:50:34;;;;;;;2.43;1.07;;;;;;;;;;702493;28;785;-68
2024/02/26 01:50:54;;;;;;;2.03;1.00;;;;;;;;;;700660;28;1037;-68
2024/02/26 01:51:15;;;;;;;1.97;1.00;;;;;;;;;;699557;28;931;-68
2024/02/26 01:51:35;;;;;;;2.28;1.10;;;;;;;;;;700342;28;868;-68
2024/02/26 01:51:56;;;;;;;2.27;1.10;;;;;;;;;;698041;28;2113;-68
2024/02/26 01:52:17;;;;;;;2.50;1.17;;;;;;;;;;696339;28;4251;-67
2024/02/26 01:52:37;;;;;;;1.90;1.00;;;;;;;;;;696983;28;864;-68
2024/02/26 01:52:58;;;;;;;1.87;1.00;;;;;;;;;;696412;28;2225;-68
2024/02/26 01:53:18;;;;;;;1.90;1.00;;;;;;;;;;699342;28;926;-68
2024/02/26 01:53:39;;;;;;;3.10;1.10;;;;;;;;;;698340;28;959;-68
2024/02/26 01:54:01;;;;;;;2.67;1.10;;;;;;;;;;699476;28;1838;-69
2024/02/26 01:54:21;;;;;;;1.42;0.85;;;;;;;;;;698108;28;1011;-68
2024/02/26 01:54:42;;;;;;;2.50;1.00;;;;;;;;;;699890;28;796;-68
2024/02/26 01:55:02;;;;;;;2.90;1.10;;;;;;;;;;694878;28;4497;-68
2024/02/26 01:55:24;;;;;;;2.58;1.17;;;;;;;;;;694819;28;1212;-69
2024/02/26 01:55:44;;;;;;;2.50;1.10;;;;;;;;;;695182;28;963;-68
2024/02/26 01:56:04;;;;;;;1.90;1.10;;;;;;;;;;694653;28;1577;-68
2024/02/26 01:56:30;;;;;;;2.30;1.10;;;;;;;;;;697765;28;963;-69
2024/02/26 01:56:50;;;;;;;2.67;1.05;;;;;;;;;;697329;28;2269;-71
2024/02/26 01:57:11;;;;;;;2.23;0.90;;;;;;;;;;700819;28;940;-68
2024/02/26 01:57:32;;;;;;;2.17;0.90;;;;;;;;;;702011;28;939;-69
2024/02/26 01:57:53;;;;;;;2.50;0.90;;;;;;;;;;701209;28;1869;-69
2024/02/26 01:58:14;;;;;;;3.75;1.17;;;;;;;;;;701110;28;4256;-69
2024/02/26 01:58:35;;;;;;;2.83;1.10;;;;;;;;;;702058;28;868;-69
2024/02/26 01:58:56;;;;;;;1.98;1.02;;;;;;;;;;700376;28;1734;-69
2024/02/26 01:59:17;;;;;;;2.35;1.10;;;;;;;;;;704494;27;947;-69
2024/02/26 01:59:37;;;;;;;2.30;1.10;;;;;;;;;;704778;27;892;-68
2024/02/26 01:59:57;;;;;;;2.22;0.95;;;;;;;;;;699289;28;1988;-68
2024/02/26 02:00:18;;;;;;;1.50;0.90;;;;;;;;;;701801;28;876;-68
2024/02/26 02:00:38;;;;;;;1.85;1.00;;;;;;;;;;699558;28;892;-68
2024/02/26 02:00:59;;;;;;;2.23;1.10;;;;;;;;;;695476;28;3782;-68
2024/02/26 02:01:22;;;;;;;2.20;1.00;;;;;;;;;;697310;28;4286;-68
2024/02/26 02:01:45;;;;;;;1.75;0.93;;;;;;;;;;696674;28;4917;-68
2024/02/26 02:02:07;;;;;;;2.70;1.13;;;;;;;;;;697589;28;1335;-69
2024/02/26 02:02:28;;;;;;;2.67;1.20;;;;;;;;;;700751;28;1015;-68
2024/02/26 02:02:49;;;;;;;2.23;1.00;;;;;;;;;;701359;28;781;-68
2024/02/26 02:03:09;;;;;;;1.85;0.95;;;;;;;;;;700801;28;1045;-68
2024/02/26 02:03:30;;;;;;;1.90;1.10;;;;;;;;;;704128;27;912;-68
2024/02/26 02:03:51;;;;;;;2.30;1.02;;;;;;;;;;703961;27;1945;-68
2024/02/26 02:04:11;;;;;;;2.13;1.17;;;;;;;;;;704057;27;4261;-68
2024/02/26 02:04:31;;;;;;;3.03;1.30;;;;;;;;;;705421;27;919;-68
2024/02/26 02:04:52;;;;;;;3.22;1.35;;;;;;;;;;704343;27;1972;-68
2024/02/26 02:05:13;;;;;;;2.67;1.20;;;;;;;;;;705729;27;988;-68
2024/02/26 02:05:33;;;;;;;2.10;1.08;;;;;;;;;;703986;28;894;-69
2024/02/26 02:05:53;;;;;;;2.07;1.00;;;;;;;;;;702397;28;1514;-68
2024/02/26 02:06:14;;;;;;;1.93;1.00;;;;;;;;;;704881;27;888;-68
2024/02/26 02:06:35;;;;;;;1.85;1.00;;;;;;;;;;705886;28;824;-69
2024/02/26 02:06:57;;;;;;;1.67;1.00;;;;;;;;;;703764;28;1507;-68
2024/02/26 02:07:18;;;;;;;1.80;0.90;;;;;;;;;;704380;27;4200;-69
2024/02/26 02:07:39;;;;;;;1.83;0.98;;;;;;;;;;705800;27;963;-69
2024/02/26 02:08:00;;;;;;;1.75;1.00;;;;;;;;;;700795;27;1870;-69